METAR AND TAF INFORMATION
METAR FOR LOWG
ADDS - METARS form results

(1740 UTC 21 March 2019)
Data provider http://aviationweather.gov/metar/data/
 
METAR text: LOWG 211720Z 21003KT CAVOK 10/M04 Q1032 NOSIG
Conditions at: LOWG (GRAZ (MIL/CIV) , AT) observed 1720 UTC 21 March 2019
Temperature: 10.0°C (50°F)
Dewpoint: -4.0°C (25°F) [RH = 37%]
Pressure (altimeter): 30.47 inches Hg (1032.0 mb)
Winds: from the SSW (210 degrees) at 3 MPH (3 knots; 1.5 m/s)
Visibility: 6 or more miles (10+ km)
Ceiling: ceiling and visibility are OK
Clouds: unknown
Weather: no significant weather observed at this time

METAR text: LOWG 211650Z VRB02KT CAVOK 11/M04 Q1032 NOSIG
Conditions at: LOWG (GRAZ (MIL/CIV) , AT) observed 1650 UTC 21 March 2019
Temperature: 11.0°C (52°F)
Dewpoint: -4.0°C (25°F) [RH = 35%]
Pressure (altimeter): 30.47 inches Hg (1032.0 mb)
Winds: variable direction winds at 2 MPH (2 knots; 1.0 m/s)
Visibility: 6 or more miles (10+ km)
Ceiling: ceiling and visibility are OK
Clouds: unknown
Weather: no significant weather observed at this time

Forecast for: LOWG (GRAZ (MIL/CIV) , AT)
Text: TAF LOWG 211715Z 2118/2218 VRB02KT CAVOK TX16/2214Z TNM03/2204Z
Forecast period: 1800 UTC 21 March 2019 to 1800 UTC 22 March 2019
Forecast type: FROM: standard forecast or significant change
Winds: variable direction winds at 2 MPH (2 knots; 1.0 m/s)
Visibility: 6 or more miles 10+ km)
Ceiling: unknown
Clouds: missing
Weather: no significant weather forecast for this period

 AIRPORT MAP

 RUNWAY INFORMATION
Runway 17C Runway length 9842 ft Runway width 148 ft
Runway elevation 1115 ft Runway displaced threshold 853 ft Runway heading 169
Runway 35C Runway length 9842 ft Runway width 148 ft
Runway elevation 1089 ft Runway displaced threshold 0 ft Runway heading 349
Runway 17L Runway length 2100 ft Runway width 98 ft
Runway elevation 1112 ft Runway displaced threshold 0 ft Runway heading 169
Runway 35R Runway length 2100 ft Runway width 98 ft
Runway elevation 1102 ft Runway displaced threshold 0 ft Runway heading 349
Runway 17R Runway length 2493 ft Runway width 82 ft
Runway elevation 1112 ft Runway displaced threshold 492 ft Runway heading 169
Runway 35L Runway length 2493 ft Runway width 82 ft
Runway elevation 1102 ft Runway displaced threshold 492 ft Runway heading 349

 AIRPORT FREQUENCIES
Type APP Name APP Frequency 119.3 MHZ
Type ATIS Name ATIS Frequency 126.125 MHZ
Type TWR Name TWR Frequency 118.2 MHZ

 AIRPORT NEAR NAVIGATION AIDS



Powered by Virtual Airlines Manager [v2.6.2]